sensor_id;sensor_type;location;lat;lon;timestamp;P1;durP1;ratioP1;P2;durP2;ratioP2
5491;SDS011;2768;53.540;10.224;2023-04-24T00:01:36;4.87;;;4.47;;
5491;SDS011;2768;53.540;10.224;2023-04-24T00:07:30;4.93;;;4.43;;
5491;SDS011;2768;53.540;10.224;2023-04-24T00:13:25;5.20;;;4.13;;
5491;SDS011;2768;53.540;10.224;2023-04-24T00:19:20;5.50;;;5.10;;
5491;SDS011;2768;53.540;10.224;2023-04-24T00:25:13;4.53;;;4.13;;
5491;SDS011;2768;53.540;10.224;2023-04-24T00:31:08;5.20;;;4.80;;
5491;SDS011;2768;53.540;10.224;2023-04-24T00:37:02;5.50;;;5.10;;
5491;SDS011;2768;53.540;10.224;2023-04-24T00:42:55;4.60;;;4.20;;
5491;SDS011;2768;53.540;10.224;2023-04-24T00:48:50;6.13;;;5.53;;
5491;SDS011;2768;53.540;10.224;2023-04-24T00:54:43;6.60;;;4.57;;
5491;SDS011;2768;53.540;10.224;2023-04-24T01:00:36;4.97;;;4.57;;
5491;SDS011;2768;53.540;10.224;2023-04-24T01:06:31;5.00;;;4.50;;
5491;SDS011;2768;53.540;10.224;2023-04-24T01:12:25;4.97;;;4.67;;
5491;SDS011;2768;53.540;10.224;2023-04-24T01:18:19;4.60;;;4.20;;
5491;SDS011;2768;53.540;10.224;2023-04-24T01:24:15;4.60;;;4.17;;
5491;SDS011;2768;53.540;10.224;2023-04-24T01:30:11;4.30;;;4.00;;
5491;SDS011;2768;53.540;10.224;2023-04-24T01:36:05;4.70;;;3.63;;
5491;SDS011;2768;53.540;10.224;2023-04-24T01:48:22;3.47;;;3.27;;
5491;SDS011;2768;53.540;10.224;2023-04-24T01:54:16;3.50;;;3.30;;
5491;SDS011;2768;53.540;10.224;2023-04-24T02:00:11;3.30;;;3.10;;
5491;SDS011;2768;53.540;10.224;2023-04-24T02:06:05;3.40;;;3.10;;
5491;SDS011;2768;53.540;10.224;2023-04-24T02:11:58;3.93;;;3.27;;
5491;SDS011;2768;53.540;10.224;2023-04-24T02:17:53;3.13;;;2.93;;
5491;SDS011;2768;53.540;10.224;2023-04-24T02:23:47;2.90;;;2.70;;
5491;SDS011;2768;53.540;10.224;2023-04-24T02:29:40;2.87;;;2.67;;
5491;SDS011;2768;53.540;10.224;2023-04-24T02:35:36;3.10;;;2.73;;
5491;SDS011;2768;53.540;10.224;2023-04-24T02:41:29;2.60;;;2.40;;
5491;SDS011;2768;53.540;10.224;2023-04-24T02:47:24;2.50;;;2.30;;
5491;SDS011;2768;53.540;10.224;2023-04-24T02:53:18;2.03;;;1.93;;
5491;SDS011;2768;53.540;10.224;2023-04-24T02:59:12;3.60;;;2.10;;
5491;SDS011;2768;53.540;10.224;2023-04-24T03:05:06;1.63;;;1.53;;
5491;SDS011;2768;53.540;10.224;2023-04-24T03:11:02;1.43;;;1.33;;
5491;SDS011;2768;53.540;10.224;2023-04-24T03:16:54;2.37;;;1.50;;
5491;SDS011;2768;53.540;10.224;2023-04-24T03:22:48;1.60;;;1.50;;
5491;SDS011;2768;53.540;10.224;2023-04-24T03:28:43;1.40;;;1.30;;
5491;SDS011;2768;53.540;10.224;2023-04-24T03:34:36;1.37;;;1.27;;
5491;SDS011;2768;53.540;10.224;2023-04-24T03:40:31;1.70;;;1.60;;
5491;SDS011;2768;53.540;10.224;2023-04-24T03:46:28;1.20;;;1.10;;
5491;SDS011;2768;53.540;10.224;2023-04-24T03:52:24;1.33;;;1.33;;
5491;SDS011;2768;53.540;10.224;2023-04-24T03:58:18;1.27;;;1.20;;
5491;SDS011;2768;53.540;10.224;2023-04-24T04:04:15;1.33;;;1.33;;
5491;SDS011;2768;53.540;10.224;2023-04-24T04:10:09;1.40;;;1.40;;
5491;SDS011;2768;53.540;10.224;2023-04-24T04:16:03;1.40;;;1.30;;
5491;SDS011;2768;53.540;10.224;2023-04-24T04:21:58;1.80;;;1.23;;
5491;SDS011;2768;53.540;10.224;2023-04-24T04:28:00;1.20;;;1.20;;
5491;SDS011;2768;53.540;10.224;2023-04-24T04:33:53;1.20;;;1.10;;
5491;SDS011;2768;53.540;10.224;2023-04-24T04:39:48;1.70;;;1.07;;
5491;SDS011;2768;53.540;10.224;2023-04-24T04:45:46;1.00;;;1.00;;
5491;SDS011;2768;53.540;10.224;2023-04-24T04:51:58;1.20;;;1.20;;
5491;SDS011;2768;53.540;10.224;2023-04-24T04:57:54;1.50;;;1.40;;
5491;SDS011;2768;53.540;10.224;2023-04-24T05:03:48;1.07;;;1.07;;
5491;SDS011;2768;53.540;10.224;2023-04-24T05:09:42;1.20;;;1.10;;
5491;SDS011;2768;53.540;10.224;2023-04-24T05:15:38;1.23;;;1.13;;
5491;SDS011;2768;53.540;10.224;2023-04-24T05:21:31;2.20;;;1.30;;
5491;SDS011;2768;53.540;10.224;2023-04-24T05:27:25;1.40;;;1.30;;
5491;SDS011;2768;53.540;10.224;2023-04-24T05:33:19;1.43;;;1.33;;
5491;SDS011;2768;53.540;10.224;2023-04-24T05:39:13;1.60;;;1.50;;
5491;SDS011;2768;53.540;10.224;2023-04-24T05:45:07;1.57;;;1.47;;
5491;SDS011;2768;53.540;10.224;2023-04-24T05:51:08;1.30;;;1.20;;
5491;SDS011;2768;53.540;10.224;2023-04-24T05:57:02;1.43;;;1.33;;
5491;SDS011;2768;53.540;10.224;2023-04-24T06:03:12;1.33;;;1.20;;
5491;SDS011;2768;53.540;10.224;2023-04-24T06:09:07;2.50;;;1.20;;
5491;SDS011;2768;53.540;10.224;2023-04-24T06:15:01;1.67;;;1.37;;
5491;SDS011;2768;53.540;10.224;2023-04-24T06:21:11;1.43;;;1.30;;
5491;SDS011;2768;53.540;10.224;2023-04-24T06:27:06;1.37;;;1.27;;
5491;SDS011;2768;53.540;10.224;2023-04-24T06:33:00;1.10;;;1.10;;
5491;SDS011;2768;53.540;10.224;2023-04-24T06:39:10;1.37;;;1.27;;
5491;SDS011;2768;53.540;10.224;2023-04-24T06:45:05;1.53;;;1.43;;
5491;SDS011;2768;53.540;10.224;2023-04-24T06:50:58;1.40;;;1.40;;
5491;SDS011;2768;53.540;10.224;2023-04-24T06:56:52;1.57;;;1.47;;
5491;SDS011;2768;53.540;10.224;2023-04-24T07:02:47;1.40;;;1.30;;
5491;SDS011;2768;53.540;10.224;2023-04-24T07:08:40;1.73;;;1.63;;
5491;SDS011;2768;53.540;10.224;2023-04-24T07:14:34;2.13;;;1.80;;
5491;SDS011;2768;53.540;10.224;2023-04-24T07:20:29;1.83;;;1.73;;
5491;SDS011;2768;53.540;10.224;2023-04-24T07:26:23;1.87;;;1.77;;
5491;SDS011;2768;53.540;10.224;2023-04-24T07:32:16;1.97;;;1.87;;
5491;SDS011;2768;53.540;10.224;2023-04-24T07:38:11;1.97;;;1.87;;
5491;SDS011;2768;53.540;10.224;2023-04-24T07:44:04;2.30;;;2.10;;
5491;SDS011;2768;53.540;10.224;2023-04-24T07:49:57;2.33;;;2.23;;
5491;SDS011;2768;53.540;10.224;2023-04-24T07:55:52;2.57;;;2.37;;
5491;SDS011;2768;53.540;10.224;2023-04-24T08:01:47;2.17;;;2.07;;
5491;SDS011;2768;53.540;10.224;2023-04-24T08:07:40;2.60;;;2.37;;
5491;SDS011;2768;53.540;10.224;2023-04-24T08:13:35;2.60;;;2.40;;
5491;SDS011;2768;53.540;10.224;2023-04-24T08:19:29;2.73;;;2.53;;
5491;SDS011;2768;53.540;10.224;2023-04-24T08:25:22;3.63;;;2.60;;
5491;SDS011;2768;53.540;10.224;2023-04-24T08:31:17;3.37;;;3.07;;
5491;SDS011;2768;53.540;10.224;2023-04-24T08:37:11;3.23;;;2.93;;
5491;SDS011;2768;53.540;10.224;2023-04-24T08:43:04;4.40;;;4.10;;
5491;SDS011;2768;53.540;10.224;2023-04-24T08:48:59;3.70;;;3.50;;
5491;SDS011;2768;53.540;10.224;2023-04-24T08:54:53;4.57;;;4.27;;
5491;SDS011;2768;53.540;10.224;2023-04-24T09:00:47;4.40;;;4.10;;
5491;SDS011;2768;53.540;10.224;2023-04-24T09:06:42;5.27;;;4.87;;
5491;SDS011;2768;53.540;10.224;2023-04-24T09:12:36;6.00;;;5.40;;
5491;SDS011;2768;53.540;10.224;2023-04-24T09:18:29;4.67;;;4.37;;
5491;SDS011;2768;53.540;10.224;2023-04-24T09:24:24;4.70;;;4.30;;
5491;SDS011;2768;53.540;10.224;2023-04-24T09:30:19;4.53;;;3.60;;
5491;SDS011;2768;53.540;10.224;2023-04-24T09:36:14;4.50;;;4.20;;
5491;SDS011;2768;53.540;10.224;2023-04-24T09:42:12;4.23;;;3.93;;
5491;SDS011;2768;53.540;10.224;2023-04-24T09:48:05;4.90;;;4.50;;
5491;SDS011;2768;53.540;10.224;2023-04-24T09:54:02;4.90;;;4.60;;
5491;SDS011;2768;53.540;10.224;2023-04-24T09:59:57;5.00;;;4.60;;
5491;SDS011;2768;53.540;10.224;2023-04-24T10:06:01;5.03;;;4.53;;
5491;SDS011;2768;53.540;10.224;2023-04-24T10:12:00;4.90;;;4.53;;
5491;SDS011;2768;53.540;10.224;2023-04-24T10:17:55;4.63;;;4.27;;
5491;SDS011;2768;53.540;10.224;2023-04-24T10:23:51;4.20;;;3.90;;
5491;SDS011;2768;53.540;10.224;2023-04-24T10:29:44;6.37;;;5.03;;
5491;SDS011;2768;53.540;10.224;2023-04-24T10:35:41;6.47;;;5.93;;
5491;SDS011;2768;53.540;10.224;2023-04-24T10:41:37;6.50;;;5.90;;
5491;SDS011;2768;53.540;10.224;2023-04-24T10:47:39;6.50;;;5.90;;
5491;SDS011;2768;53.540;10.224;2023-04-24T10:53:34;8.10;;;7.40;;
5491;SDS011;2768;53.540;10.224;2023-04-24T10:59:28;7.93;;;7.10;;
5491;SDS011;2768;53.540;10.224;2023-04-24T11:05:48;8.00;;;7.20;;
5491;SDS011;2768;53.540;10.224;2023-04-24T11:11:45;7.90;;;7.20;;
5491;SDS011;2768;53.540;10.224;2023-04-24T11:17:40;8.80;;;7.90;;
5491;SDS011;2768;53.540;10.224;2023-04-24T11:23:35;8.23;;;7.43;;
5491;SDS011;2768;53.540;10.224;2023-04-24T11:29:40;8.23;;;7.43;;
5491;SDS011;2768;53.540;10.224;2023-04-24T11:35:35;7.93;;;6.70;;
5491;SDS011;2768;53.540;10.224;2023-04-24T11:41:33;7.40;;;6.70;;
5491;SDS011;2768;53.540;10.224;2023-04-24T11:47:31;6.67;;;5.97;;
5491;SDS011;2768;53.540;10.224;2023-04-24T11:53:25;6.57;;;5.40;;
5491;SDS011;2768;53.540;10.224;2023-04-24T11:59:18;6.43;;;5.90;;
5491;SDS011;2768;53.540;10.224;2023-04-24T12:05:20;6.70;;;5.90;;
5491;SDS011;2768;53.540;10.224;2023-04-24T12:11:15;6.33;;;5.73;;
5491;SDS011;2768;53.540;10.224;2023-04-24T12:17:10;6.30;;;5.20;;
5491;SDS011;2768;53.540;10.224;2023-04-24T12:23:04;9.30;;;7.73;;
5491;SDS011;2768;53.540;10.224;2023-04-24T12:29:00;7.33;;;5.80;;
5491;SDS011;2768;53.540;10.224;2023-04-24T12:34:55;5.93;;;5.37;;
5491;SDS011;2768;53.540;10.224;2023-04-24T12:41:00;4.13;;;3.83;;
5491;SDS011;2768;53.540;10.224;2023-04-24T12:46:55;4.90;;;4.40;;
5491;SDS011;2768;53.540;10.224;2023-04-24T12:52:49;5.23;;;4.73;;
5491;SDS011;2768;53.540;10.224;2023-04-24T12:58:43;5.40;;;4.90;;
5491;SDS011;2768;53.540;10.224;2023-04-24T13:04:37;4.90;;;4.40;;
5491;SDS011;2768;53.540;10.224;2023-04-24T13:10:30;3.50;;;3.30;;
5491;SDS011;2768;53.540;10.224;2023-04-24T13:16:24;3.53;;;3.23;;
5491;SDS011;2768;53.540;10.224;2023-04-24T13:22:18;3.30;;;3.10;;
5491;SDS011;2768;53.540;10.224;2023-04-24T13:28:11;4.00;;;3.70;;
5491;SDS011;2768;53.540;10.224;2023-04-24T13:34:05;4.07;;;3.67;;
5491;SDS011;2768;53.540;10.224;2023-04-24T13:39:58;3.90;;;3.60;;
5491;SDS011;2768;53.540;10.224;2023-04-24T13:45:52;5.10;;;4.50;;
5491;SDS011;2768;53.540;10.224;2023-04-24T13:51:47;4.80;;;4.40;;
5491;SDS011;2768;53.540;10.224;2023-04-24T13:57:40;6.03;;;4.47;;
5491;SDS011;2768;53.540;10.224;2023-04-24T14:03:33;5.10;;;4.30;;
5491;SDS011;2768;53.540;10.224;2023-04-24T14:09:28;3.23;;;3.03;;
5491;SDS011;2768;53.540;10.224;2023-04-24T14:15:21;3.50;;;3.30;;
5491;SDS011;2768;53.540;10.224;2023-04-24T14:21:14;3.43;;;3.23;;
5491;SDS011;2768;53.540;10.224;2023-04-24T14:27:09;3.07;;;2.87;;
5491;SDS011;2768;53.540;10.224;2023-04-24T14:33:03;3.43;;;3.23;;
5491;SDS011;2768;53.540;10.224;2023-04-24T14:38:56;2.97;;;2.87;;
5491;SDS011;2768;53.540;10.224;2023-04-24T14:44:51;3.50;;;3.20;;
5491;SDS011;2768;53.540;10.224;2023-04-24T14:50:44;3.83;;;3.33;;
5491;SDS011;2768;53.540;10.224;2023-04-24T14:56:37;3.10;;;2.90;;
5491;SDS011;2768;53.540;10.224;2023-04-24T15:02:33;3.10;;;2.90;;
5491;SDS011;2768;53.540;10.224;2023-04-24T15:08:29;3.13;;;2.93;;
5491;SDS011;2768;53.540;10.224;2023-04-24T15:14:22;3.33;;;3.10;;
5491;SDS011;2768;53.540;10.224;2023-04-24T15:20:16;4.80;;;4.40;;
5491;SDS011;2768;53.540;10.224;2023-04-24T15:26:10;6.30;;;5.77;;
5491;SDS011;2768;53.540;10.224;2023-04-24T15:32:03;7.00;;;6.50;;
5491;SDS011;2768;53.540;10.224;2023-04-24T15:38:01;5.90;;;5.40;;
5491;SDS011;2768;53.540;10.224;2023-04-24T15:43:55;5.87;;;5.37;;
5491;SDS011;2768;53.540;10.224;2023-04-24T15:49:48;3.73;;;2.93;;
5491;SDS011;2768;53.540;10.224;2023-04-24T15:55:43;2.90;;;2.53;;
5491;SDS011;2768;53.540;10.224;2023-04-24T16:01:36;1.87;;;1.77;;
5491;SDS011;2768;53.540;10.224;2023-04-24T16:07:29;2.53;;;2.33;;
5491;SDS011;2768;53.540;10.224;2023-04-24T16:13:24;3.10;;;2.80;;
5491;SDS011;2768;53.540;10.224;2023-04-24T16:19:19;3.47;;;3.17;;
5491;SDS011;2768;53.540;10.224;2023-04-24T16:25:12;4.20;;;3.80;;
5491;SDS011;2768;53.540;10.224;2023-04-24T16:31:07;4.77;;;4.30;;
5491;SDS011;2768;53.540;10.224;2023-04-24T16:37:00;3.70;;;3.40;;
5491;SDS011;2768;53.540;10.224;2023-04-24T16:42:54;4.80;;;3.73;;
5491;SDS011;2768;53.540;10.224;2023-04-24T16:48:49;4.03;;;3.63;;
5491;SDS011;2768;53.540;10.224;2023-04-24T16:54:42;3.60;;;3.33;;
5491;SDS011;2768;53.540;10.224;2023-04-24T17:00:35;3.80;;;3.40;;
5491;SDS011;2768;53.540;10.224;2023-04-24T17:06:30;4.30;;;3.90;;
5491;SDS011;2768;53.540;10.224;2023-04-24T17:12:23;3.27;;;3.00;;
5491;SDS011;2768;53.540;10.224;2023-04-24T17:18:17;3.67;;;3.37;;
5491;SDS011;2768;53.540;10.224;2023-04-24T17:24:12;3.00;;;2.77;;
5491;SDS011;2768;53.540;10.224;2023-04-24T17:30:05;3.80;;;3.47;;
5491;SDS011;2768;53.540;10.224;2023-04-24T17:36:00;3.37;;;3.17;;
5491;SDS011;2768;53.540;10.224;2023-04-24T17:41:54;4.07;;;3.77;;
5491;SDS011;2768;53.540;10.224;2023-04-24T17:47:47;6.83;;;4.37;;
5491;SDS011;2768;53.540;10.224;2023-04-24T17:53:42;4.53;;;4.13;;
5491;SDS011;2768;53.540;10.224;2023-04-24T17:59:36;5.57;;;4.73;;
5491;SDS011;2768;53.540;10.224;2023-04-24T18:05:30;6.50;;;5.07;;
5491;SDS011;2768;53.540;10.224;2023-04-24T18:11:24;6.10;;;4.50;;
5491;SDS011;2768;53.540;10.224;2023-04-24T18:17:19;4.87;;;4.37;;
5491;SDS011;2768;53.540;10.224;2023-04-24T18:23:12;6.87;;;4.60;;
5491;SDS011;2768;53.540;10.224;2023-04-24T18:29:05;6.40;;;5.13;;
5491;SDS011;2768;53.540;10.224;2023-04-24T18:35:00;5.47;;;4.30;;
5491;SDS011;2768;53.540;10.224;2023-04-24T18:40:54;4.73;;;4.20;;
5491;SDS011;2768;53.540;10.224;2023-04-24T18:46:48;8.87;;;3.70;;
5491;SDS011;2768;53.540;10.224;2023-04-24T18:52:42;4.53;;;3.57;;
5491;SDS011;2768;53.540;10.224;2023-04-24T18:58:35;3.37;;;3.07;;
5491;SDS011;2768;53.540;10.224;2023-04-24T19:04:28;4.93;;;2.93;;
5491;SDS011;2768;53.540;10.224;2023-04-24T19:10:23;3.03;;;2.70;;
5491;SDS011;2768;53.540;10.224;2023-04-24T19:16:17;3.90;;;2.87;;
5491;SDS011;2768;53.540;10.224;2023-04-24T19:22:11;2.87;;;2.67;;
5491;SDS011;2768;53.540;10.224;2023-04-24T19:28:05;3.30;;;2.87;;
5491;SDS011;2768;53.540;10.224;2023-04-24T19:33:59;3.33;;;2.60;;
5491;SDS011;2768;53.540;10.224;2023-04-24T19:39:52;2.80;;;2.10;;
5491;SDS011;2768;53.540;10.224;2023-04-24T19:45:47;2.70;;;2.50;;
5491;SDS011;2768;53.540;10.224;2023-04-24T19:51:41;4.43;;;2.63;;
5491;SDS011;2768;53.540;10.224;2023-04-24T19:57:34;5.20;;;2.77;;
5491;SDS011;2768;53.540;10.224;2023-04-24T20:03:29;3.30;;;2.77;;
5491;SDS011;2768;53.540;10.224;2023-04-24T20:09:25;6.40;;;3.60;;
5491;SDS011;2768;53.540;10.224;2023-04-24T20:15:19;5.50;;;3.50;;
5491;SDS011;2768;53.540;10.224;2023-04-24T20:21:14;4.20;;;3.90;;
5491;SDS011;2768;53.540;10.224;2023-04-24T20:27:07;6.57;;;5.80;;
5491;SDS011;2768;53.540;10.224;2023-04-24T20:33:00;7.33;;;6.10;;
5491;SDS011;2768;53.540;10.224;2023-04-24T20:38:55;8.23;;;5.90;;
5491;SDS011;2768;53.540;10.224;2023-04-24T20:44:50;7.37;;;5.90;;
5491;SDS011;2768;53.540;10.224;2023-04-24T20:50:43;6.40;;;5.80;;
5491;SDS011;2768;53.540;10.224;2023-04-24T20:56:38;6.00;;;4.77;;
5491;SDS011;2768;53.540;10.224;2023-04-24T21:02:31;5.60;;;4.60;;
5491;SDS011;2768;53.540;10.224;2023-04-24T21:08:25;7.33;;;5.70;;
5491;SDS011;2768;53.540;10.224;2023-04-24T21:14:19;6.00;;;4.30;;
5491;SDS011;2768;53.540;10.224;2023-04-24T21:20:12;6.77;;;4.47;;
5491;SDS011;2768;53.540;10.224;2023-04-24T21:26:06;5.13;;;4.63;;
5491;SDS011;2768;53.540;10.224;2023-04-24T21:32:01;5.83;;;3.77;;
5491;SDS011;2768;53.540;10.224;2023-04-24T21:37:55;4.97;;;3.80;;
5491;SDS011;2768;53.540;10.224;2023-04-24T21:43:48;5.43;;;3.37;;
5491;SDS011;2768;53.540;10.224;2023-04-24T21:49:44;5.70;;;3.87;;
5491;SDS011;2768;53.540;10.224;2023-04-24T21:55:37;6.60;;;3.37;;
5491;SDS011;2768;53.540;10.224;2023-04-24T22:01:30;3.87;;;2.87;;
5491;SDS011;2768;53.540;10.224;2023-04-24T22:07:26;4.77;;;3.80;;
5491;SDS011;2768;53.540;10.224;2023-04-24T22:13:19;6.50;;;4.00;;
5491;SDS011;2768;53.540;10.224;2023-04-24T22:19:12;4.50;;;3.50;;
5491;SDS011;2768;53.540;10.224;2023-04-24T22:25:08;4.20;;;3.80;;
5491;SDS011;2768;53.540;10.224;2023-04-24T22:31:01;4.50;;;3.70;;
5491;SDS011;2768;53.540;10.224;2023-04-24T22:36:55;4.47;;;3.80;;
5491;SDS011;2768;53.540;10.224;2023-04-24T22:42:49;3.83;;;3.20;;
5491;SDS011;2768;53.540;10.224;2023-04-24T22:48:43;8.40;;;3.90;;
5491;SDS011;2768;53.540;10.224;2023-04-24T22:54:38;7.40;;;4.17;;
5491;SDS011;2768;53.540;10.224;2023-04-24T23:00:33;4.70;;;4.07;;
5491;SDS011;2768;53.540;10.224;2023-04-24T23:06:27;5.30;;;3.83;;
5491;SDS011;2768;53.540;10.224;2023-04-24T23:12:21;7.67;;;4.50;;
5491;SDS011;2768;53.540;10.224;2023-04-24T23:18:16;6.93;;;3.87;;
5491;SDS011;2768;53.540;10.224;2023-04-24T23:24:09;7.00;;;4.77;;
5491;SDS011;2768;53.540;10.224;2023-04-24T23:30:03;5.57;;;4.93;;
5491;SDS011;2768;53.540;10.224;2023-04-24T23:35:59;4.90;;;4.40;;
5491;SDS011;2768;53.540;10.224;2023-04-24T23:41:53;6.60;;;5.10;;
5491;SDS011;2768;53.540;10.224;2023-04-24T23:47:46;7.27;;;4.73;;
5491;SDS011;2768;53.540;10.224;2023-04-24T23:53:40;8.93;;;4.37;;
5491;SDS011;2768;53.540;10.224;2023-04-24T23:59:34;5.60;;;4.43;;
